createdAt,value
2018-01-13T00:01:35.704Z,42.87
2018-01-13T00:04:03.272Z,39.33
2018-01-13T00:06:30.849Z,41.30
2018-01-13T00:08:58.408Z,39.23
2018-01-13T00:11:26.744Z,42.17
2018-01-13T00:13:54.298Z,43.03
2018-01-13T00:16:22.637Z,39.40
2018-01-13T00:18:50.189Z,40.20
2018-01-13T00:21:18.529Z,40.60
2018-01-13T00:23:46.090Z,39.87
2018-01-13T00:26:13.665Z,42.20
2018-01-13T00:28:41.985Z,41.90
2018-01-13T00:31:09.552Z,38.70
2018-01-13T00:33:37.884Z,39.40
2018-01-13T00:36:05.466Z,41.40
2018-01-13T00:38:33.027Z,39.00
2018-01-13T00:41:00.598Z,38.90
2018-01-13T00:43:28.912Z,40.57
2018-01-13T00:45:56.463Z,37.57
2018-01-13T00:48:24.037Z,38.20
2018-01-13T00:50:51.588Z,33.43
2018-01-13T00:53:19.155Z,40.53
2018-01-13T00:55:46.710Z,38.07
2018-01-13T00:58:15.209Z,39.30
2018-01-13T01:00:42.862Z,39.53
2018-01-13T01:03:10.449Z,39.00
2018-01-13T01:05:38.815Z,38.57
2018-01-13T01:08:07.136Z,36.80
2018-01-13T01:10:34.698Z,40.37
2018-01-13T01:13:02.268Z,38.90
2018-01-13T01:15:30.584Z,37.00
2018-01-13T01:17:58.167Z,37.53
2018-01-13T01:20:25.720Z,40.17
2018-01-13T01:22:53.297Z,41.60
2018-01-13T01:25:20.853Z,41.03
2018-01-13T01:27:48.425Z,38.43
2018-01-13T01:30:15.992Z,41.97
2018-01-13T01:32:43.557Z,43.63
2018-01-13T01:35:11.896Z,41.37
2018-01-13T01:37:39.477Z,40.37
2018-01-13T01:40:07.044Z,42.10
2018-01-13T01:42:34.606Z,41.87
2018-01-13T01:45:02.944Z,42.10
2018-01-13T01:47:30.496Z,43.40
2018-01-13T01:49:58.832Z,40.53
2018-01-13T01:52:26.384Z,40.50
2018-01-13T01:54:54.717Z,40.53
2018-01-13T01:57:22.278Z,42.40
2018-01-13T01:59:50.617Z,40.40
2018-01-13T02:02:18.166Z,38.10
2018-01-13T02:04:45.743Z,42.20
2018-01-13T02:07:14.062Z,42.10
2018-01-13T02:09:41.616Z,43.97
2018-01-13T02:12:09.198Z,40.20
2018-01-13T02:14:36.765Z,40.80
2018-01-13T02:17:04.344Z,39.77
2018-01-13T02:19:31.896Z,42.73
2018-01-13T02:21:59.461Z,40.23
2018-01-13T02:24:27.782Z,40.17
2018-01-13T02:26:55.354Z,45.43
2018-01-13T02:29:22.914Z,42.37
2018-01-13T02:31:51.275Z,43.17
2018-01-13T02:34:18.829Z,41.70
2018-01-13T02:36:46.404Z,39.07
2018-01-13T02:39:13.960Z,41.17
2018-01-13T02:41:41.529Z,41.40
2018-01-13T02:44:09.080Z,42.20
2018-01-13T02:46:36.658Z,43.00
2018-01-13T02:49:04.409Z,39.27
2018-01-13T02:51:32.749Z,38.63
2018-01-13T02:54:00.305Z,40.77
2018-01-13T02:56:28.624Z,38.83
2018-01-13T02:58:56.196Z,41.30
2018-01-13T03:01:23.749Z,41.03
2018-01-13T03:03:51.320Z,42.67
2018-01-13T03:06:18.868Z,37.90
2018-01-13T03:08:46.443Z,38.87
2018-01-13T03:11:13.996Z,38.07
2018-01-13T03:13:42.337Z,39.20
2018-01-13T03:16:09.918Z,43.90
2018-01-13T03:18:37.493Z,40.77
2018-01-13T03:21:05.062Z,40.97
2018-01-13T03:23:33.396Z,40.77
2018-01-13T03:26:00.954Z,41.40
2018-01-13T03:28:29.289Z,42.10
2018-01-13T03:30:56.836Z,41.23
2018-01-13T03:33:25.215Z,41.23
2018-01-13T03:35:52.763Z,40.23
2018-01-13T03:38:20.332Z,41.03
2018-01-13T03:40:47.893Z,38.87
2018-01-13T03:43:15.468Z,41.30
2018-01-13T03:45:43.794Z,40.73
2018-01-13T03:48:11.355Z,41.43
2018-01-13T03:50:39.677Z,40.67
2018-01-13T03:53:07.231Z,38.73
2018-01-13T03:55:34.801Z,37.63
2018-01-13T03:58:02.356Z,38.47
2018-01-13T04:00:29.923Z,40.50
2018-01-13T04:02:57.478Z,41.23
2018-01-13T04:05:25.817Z,42.63
2018-01-13T04:07:53.373Z,42.63
2018-01-13T04:10:21.704Z,39.50
2018-01-13T04:12:49.257Z,40.63
2018-01-13T04:15:17.595Z,40.27
2018-01-13T04:17:45.160Z,41.10
2018-01-13T04:20:13.504Z,43.87
2018-01-13T04:22:41.062Z,42.00
2018-01-13T04:25:08.629Z,39.83
2018-01-13T04:27:36.949Z,40.93
2018-01-13T04:30:04.548Z,43.60
2018-01-13T04:32:32.122Z,41.43
2018-01-13T04:34:59.716Z,38.87
2018-01-13T04:37:27.272Z,42.53
2018-01-13T04:39:55.596Z,40.90
2018-01-13T04:42:23.169Z,40.73
2018-01-13T04:44:50.713Z,39.70
2018-01-13T04:47:18.283Z,40.60
2018-01-13T04:49:45.843Z,44.67
2018-01-13T04:52:13.408Z,39.47
2018-01-13T04:54:40.964Z,40.90
2018-01-13T04:57:09.314Z,40.33
2018-01-13T04:59:36.952Z,39.27
2018-01-13T05:02:05.293Z,39.13
2018-01-13T05:04:33.152Z,37.37
2018-01-13T05:07:01.497Z,38.73
2018-01-13T05:09:29.048Z,38.80
2018-01-13T05:11:56.622Z,38.50
2018-01-13T05:14:24.960Z,39.50
2018-01-13T05:16:52.507Z,37.50
2018-01-13T05:19:21.332Z,39.57
2018-01-13T05:21:48.889Z,36.30
2018-01-13T05:24:16.457Z,36.23
2018-01-13T05:26:44.013Z,37.67
2018-01-13T05:29:11.583Z,36.40
2018-01-13T05:31:39.132Z,35.97
2018-01-13T05:34:06.706Z,37.33
2018-01-13T05:36:34.257Z,36.67
2018-01-13T05:39:01.825Z,36.33
2018-01-13T05:41:29.378Z,38.63
2018-01-13T05:43:57.708Z,36.93
2018-01-13T05:46:25.256Z,33.77
2018-01-13T05:48:53.584Z,33.80
2018-01-13T05:51:21.140Z,37.30
2018-01-13T05:53:49.472Z,35.03
2018-01-13T05:56:17.021Z,33.47
2018-01-13T05:58:44.577Z,34.17
2018-01-13T06:01:12.152Z,33.67
2018-01-13T06:03:39.704Z,33.43
2018-01-13T06:06:07.275Z,31.47
2018-01-13T06:08:35.588Z,31.77
2018-01-13T06:11:03.152Z,30.50
2018-01-13T06:13:31.473Z,35.03
2018-01-13T06:15:59.796Z,30.90
2018-01-13T06:18:27.350Z,29.73
2018-01-13T06:20:54.971Z,28.80
2018-01-13T06:23:22.524Z,29.63
2018-01-13T06:25:50.104Z,30.13
2018-01-13T06:28:18.420Z,29.33
2018-01-13T06:30:45.995Z,30.20
2018-01-13T06:33:13.560Z,29.30
2018-01-13T06:35:41.900Z,28.50
2018-01-13T06:38:09.461Z,28.80
2018-01-13T06:40:37.845Z,27.80
2018-01-13T06:43:05.372Z,27.00
2018-01-13T06:45:32.944Z,25.20
2018-01-13T06:48:00.496Z,26.73
2018-01-13T06:50:28.076Z,25.73
2018-01-13T06:52:55.652Z,26.23
2018-01-13T06:55:23.196Z,25.10
2018-01-13T06:57:50.755Z,24.90
2018-01-13T07:00:19.065Z,25.53
2018-01-13T07:02:46.636Z,27.27
2018-01-13T07:05:14.977Z,26.03
2018-01-13T07:07:42.546Z,25.50
2018-01-13T07:10:10.096Z,24.90
2018-01-13T07:12:38.424Z,22.93
2018-01-13T07:15:05.972Z,26.03
2018-01-13T07:17:33.536Z,23.50
2018-01-13T07:20:01.121Z,25.13
2018-01-13T07:22:28.676Z,24.20
2018-01-13T07:24:56.283Z,23.77
2018-01-13T07:27:23.859Z,23.43
2018-01-13T07:29:51.424Z,23.70
2018-01-13T07:32:18.968Z,23.77
2018-01-13T07:34:47.304Z,21.70
2018-01-13T07:37:14.992Z,23.70
2018-01-13T07:39:42.564Z,21.67
2018-01-13T07:42:10.125Z,20.90
2018-01-13T07:44:37.696Z,23.70
2018-01-13T07:47:05.246Z,22.67
2018-01-13T07:49:32.826Z,22.07
2018-01-13T07:52:00.401Z,20.90
2018-01-13T07:54:27.960Z,20.93
2018-01-13T07:56:56.277Z,18.37
2018-01-13T07:59:23.824Z,19.47
2018-01-13T08:01:51.383Z,19.30
2018-01-13T08:04:18.932Z,16.33
2018-01-13T08:06:46.504Z,18.00
2018-01-13T08:09:14.056Z,68.80
2018-01-13T08:11:41.624Z,44.63
2018-01-13T08:14:09.190Z,18.80
2018-01-13T08:16:36.761Z,108.43
2018-01-13T08:19:04.347Z,16.83
2018-01-13T08:21:31.928Z,194.40
2018-01-13T08:23:59.495Z,148.40
2018-01-13T08:26:27.065Z,54.70
2018-01-13T08:28:55.382Z,16.20
2018-01-13T08:31:22.982Z,17.00
2018-01-13T08:33:50.556Z,16.00
2018-01-13T08:36:18.256Z,22.50
2018-01-13T08:38:45.860Z,17.80
2018-01-13T08:41:13.413Z,16.13
2018-01-13T08:43:40.989Z,14.00
2018-01-13T08:46:08.552Z,14.33
2018-01-13T08:48:36.119Z,14.00
2018-01-13T08:51:03.672Z,16.47
2018-01-13T08:53:31.242Z,14.03
2018-01-13T08:55:58.796Z,12.87
2018-01-13T08:58:27.126Z,14.80
2018-01-13T09:00:54.676Z,13.20
2018-01-13T09:03:22.261Z,11.77
2018-01-13T09:05:50.567Z,13.53
2018-01-13T09:08:18.129Z,12.50
2018-01-13T09:10:45.692Z,12.07
2018-01-13T09:13:13.256Z,12.40
2018-01-13T09:15:40.812Z,12.30
2018-01-13T09:18:09.147Z,12.70
2018-01-13T09:20:36.749Z,12.13
2018-01-13T09:23:04.296Z,11.43
2018-01-13T09:25:31.843Z,11.10
2018-01-13T09:27:59.420Z,11.20
2018-01-13T09:30:26.972Z,11.17
2018-01-13T09:32:54.529Z,12.40
2018-01-13T09:35:22.128Z,10.83
2018-01-13T09:37:49.676Z,11.70
2018-01-13T09:40:18.008Z,11.00
2018-01-13T09:42:45.591Z,11.10
2018-01-13T09:45:13.174Z,10.40
2018-01-13T09:47:40.732Z,10.00
2018-01-13T09:50:09.079Z,10.17
2018-01-13T09:52:36.625Z,10.43
2018-01-13T09:55:04.972Z,10.70
2018-01-13T09:57:32.545Z,10.93
2018-01-13T10:00:00.109Z,10.40
2018-01-13T10:02:27.832Z,8.40
2018-01-13T10:04:55.424Z,10.67
2018-01-13T10:07:22.991Z,10.70
2018-01-13T10:09:50.540Z,11.67
2018-01-13T10:12:18.105Z,11.10
2018-01-13T10:14:46.420Z,11.60
2018-01-13T10:17:14.754Z,10.80
2018-01-13T10:19:42.311Z,10.80
2018-01-13T10:22:11.444Z,11.13
2018-01-13T10:24:38.999Z,10.90
2018-01-13T10:27:07.350Z,10.10
2018-01-13T10:29:34.904Z,10.97
2018-01-13T10:32:02.494Z,10.47
2018-01-13T10:34:30.998Z,11.50
2018-01-13T10:36:59.387Z,11.33
2018-01-13T10:39:27.708Z,11.33
2018-01-13T10:41:55.292Z,12.60
2018-01-13T10:44:22.861Z,10.30
2018-01-13T10:46:51.169Z,9.80
2018-01-13T10:49:18.736Z,10.70
2018-01-13T10:51:47.101Z,11.60
2018-01-13T10:54:14.676Z,11.20
2018-01-13T10:56:42.223Z,11.03
2018-01-13T10:59:10.572Z,10.23
2018-01-13T11:01:38.124Z,11.17
2018-01-13T11:04:05.713Z,10.30
2018-01-13T11:06:33.276Z,9.40
2018-01-13T11:09:01.725Z,11.37
2018-01-13T11:11:29.287Z,12.33
2018-01-13T11:13:56.857Z,11.97
2018-01-13T11:16:24.399Z,11.60
2018-01-13T11:18:51.949Z,10.90
2018-01-13T11:21:19.515Z,11.00
2018-01-13T11:23:47.054Z,10.30
2018-01-13T11:26:14.636Z,11.97
2018-01-13T11:28:42.174Z,11.57
2018-01-13T11:31:09.739Z,10.80
2018-01-13T11:33:38.046Z,11.60
2018-01-13T11:36:05.603Z,9.83
2018-01-13T11:38:33.158Z,10.70
2018-01-13T11:41:00.755Z,11.77
2018-01-13T11:43:28.291Z,9.60
2018-01-13T11:45:55.848Z,9.40
2018-01-13T11:48:24.160Z,11.50
2018-01-13T11:50:51.716Z,10.80
2018-01-13T11:53:19.268Z,12.57
2018-01-13T11:55:46.935Z,11.37
2018-01-13T11:58:14.475Z,10.87
2018-01-13T12:00:42.032Z,11.63
2018-01-13T12:03:09.588Z,11.70
2018-01-13T12:05:37.151Z,11.97
2018-01-13T12:08:05.450Z,12.33
2018-01-13T12:10:33.771Z,13.90
2018-01-13T12:13:01.325Z,13.80
2018-01-13T12:15:29.640Z,13.77
2018-01-13T12:17:57.216Z,13.07
2018-01-13T12:20:25.548Z,12.17
2018-01-13T12:22:53.106Z,12.90
2018-01-13T12:25:20.654Z,11.97
2018-01-13T12:27:48.240Z,12.77
2018-01-13T12:30:15.800Z,12.40
2018-01-13T12:32:43.363Z,12.30
2018-01-13T12:35:10.925Z,12.50
2018-01-13T12:37:39.269Z,12.00
2018-01-13T12:40:06.819Z,12.37
2018-01-13T12:42:34.396Z,11.97
2018-01-13T12:45:01.938Z,13.60
2018-01-13T12:47:29.495Z,13.67
2018-01-13T12:49:57.795Z,12.37
2018-01-13T12:52:25.391Z,12.03
2018-01-13T12:54:52.956Z,13.00
2018-01-13T12:57:20.524Z,13.10
2018-01-13T12:59:48.096Z,12.83
2018-01-13T13:02:16.440Z,11.90
2018-01-13T13:04:43.995Z,11.70
2018-01-13T13:07:11.536Z,12.30
2018-01-13T13:09:39.098Z,12.63
2018-01-13T13:12:06.636Z,13.20
2018-01-13T13:14:34.960Z,13.20
2018-01-13T13:17:02.507Z,13.03
2018-01-13T13:19:30.062Z,12.50
2018-01-13T13:21:57.776Z,11.77
2018-01-13T13:24:26.139Z,11.57
2018-01-13T13:26:53.714Z,14.40
2018-01-13T13:29:21.299Z,13.67
2018-01-13T13:31:48.842Z,11.70
2018-01-13T13:34:17.288Z,12.33
2018-01-13T13:36:44.842Z,12.10
2018-01-13T13:39:12.435Z,10.60
2018-01-13T13:41:39.971Z,12.53
2018-01-13T13:44:07.530Z,13.60
2018-01-13T13:46:35.087Z,10.70
2018-01-13T13:49:02.628Z,12.27
2018-01-13T13:51:30.206Z,11.33
2018-01-13T13:53:57.784Z,11.47
2018-01-13T13:56:25.394Z,10.70
2018-01-13T13:58:52.986Z,10.10
2018-01-13T14:01:28.593Z,10.23
2018-01-13T14:03:49.652Z,10.80
2018-01-13T14:06:17.203Z,9.80
2018-01-13T14:08:44.747Z,10.50
2018-01-13T14:11:13.069Z,10.93
2018-01-13T14:13:41.381Z,10.03
2018-01-13T14:16:08.947Z,9.53
2018-01-13T14:18:36.506Z,10.97
2018-01-13T14:21:04.063Z,10.53
2018-01-13T14:23:31.613Z,10.53
2018-01-13T14:25:59.182Z,9.57
2018-01-13T14:28:27.500Z,10.50
2018-01-13T14:30:55.080Z,10.30
2018-01-13T14:33:22.632Z,10.40
2018-01-13T14:35:50.187Z,9.90
2018-01-13T14:38:17.761Z,10.67
2018-01-13T14:40:45.311Z,9.47
2018-01-13T14:43:13.645Z,11.00
2018-01-13T14:45:41.216Z,10.30
2018-01-13T14:48:08.780Z,10.27
2018-01-13T14:50:37.103Z,9.57
2018-01-13T14:53:04.666Z,9.80
2018-01-13T14:55:32.980Z,9.93
2018-01-13T14:58:00.571Z,10.60
2018-01-13T15:00:28.135Z,10.53
2018-01-13T15:02:56.552Z,11.07
2018-01-13T15:05:24.207Z,10.43
2018-01-13T15:07:51.803Z,10.50
2018-01-13T15:10:19.335Z,11.00
2018-01-13T15:12:46.897Z,10.53
2018-01-13T15:15:14.433Z,12.40
2018-01-13T15:17:46.161Z,11.37
2018-01-13T15:20:14.447Z,9.20
2018-01-13T15:22:42.776Z,10.30
2018-01-13T15:25:10.352Z,9.47
2018-01-13T15:27:37.978Z,10.57
2018-01-13T15:30:05.548Z,11.10
2018-01-13T15:32:33.089Z,9.60
2018-01-13T15:35:01.476Z,11.50
2018-01-13T15:37:29.798Z,9.17
2018-01-13T15:39:57.375Z,10.17
2018-01-13T15:42:25.688Z,9.93
2018-01-13T15:44:53.254Z,9.87
2018-01-13T15:47:21.576Z,8.30
2018-01-13T15:49:49.128Z,10.00
2018-01-13T15:52:16.663Z,9.73
2018-01-13T15:54:47.248Z,9.73
2018-01-13T15:57:15.160Z,8.67
2018-01-13T15:59:42.749Z,9.50
2018-01-13T16:02:10.295Z,9.50
2018-01-13T16:04:38.615Z,8.83
2018-01-13T16:07:06.176Z,9.40
2018-01-13T16:09:34.406Z,7.90
2018-01-13T16:12:01.999Z,9.53
2018-01-13T16:14:29.540Z,7.23
2018-01-13T16:16:57.096Z,8.87
2018-01-13T16:19:24.668Z,8.90
2018-01-13T16:21:53.004Z,9.93
2018-01-13T16:24:20.540Z,9.53
2018-01-13T16:26:48.096Z,9.87
2018-01-13T16:29:15.666Z,9.23
2018-01-13T16:31:43.244Z,9.40
2018-01-13T16:34:10.796Z,9.90
2018-01-13T16:36:38.365Z,9.70
2018-01-13T16:39:06.682Z,10.33
2018-01-13T16:41:35.101Z,9.90
2018-01-13T16:46:41.760Z,10.00
2018-01-13T16:49:09.298Z,9.17
2018-01-13T16:51:37.605Z,10.23
2018-01-13T16:54:09.381Z,10.33
2018-01-13T16:56:37.212Z,9.53
2018-01-13T16:59:04.787Z,9.20
2018-01-13T17:01:32.340Z,10.37
2018-01-13T17:04:00.671Z,11.20
2018-01-13T17:06:28.212Z,10.73
2018-01-13T17:08:57.499Z,10.40
2018-01-13T17:11:26.638Z,11.63
2018-01-13T17:13:57.127Z,11.40
2018-01-13T17:16:26.260Z,11.73
2018-01-13T17:18:53.826Z,11.60
2018-01-13T17:21:22.132Z,11.47
2018-01-13T17:23:51.851Z,12.33
2018-01-13T17:26:19.904Z,11.67
2018-01-13T17:28:47.463Z,11.93
2018-01-13T17:31:15.048Z,11.30
2018-01-13T17:33:42.623Z,12.00
2018-01-13T17:36:10.954Z,11.77
2018-01-13T17:38:38.513Z,12.93
2018-01-13T17:41:06.063Z,12.93
2018-01-13T17:43:33.622Z,13.70
2018-01-13T17:46:01.178Z,13.00
2018-01-13T17:48:28.728Z,11.60
2018-01-13T17:50:56.391Z,12.67
2018-01-13T17:53:23.947Z,11.90
2018-01-13T17:55:51.519Z,12.70
2018-01-13T17:58:19.078Z,13.60
2018-01-13T18:00:47.404Z,14.90
2018-01-13T18:03:14.939Z,12.80
2018-01-13T18:05:42.504Z,12.97
2018-01-13T18:08:10.043Z,13.70
2018-01-13T18:10:37.612Z,16.13
2018-01-13T18:13:05.929Z,14.43
2018-01-13T18:15:33.495Z,13.63
2018-01-13T18:18:01.815Z,14.17
2018-01-13T18:20:29.591Z,12.73
2018-01-13T18:22:57.908Z,14.37
2018-01-13T18:25:25.980Z,13.13
2018-01-13T18:27:55.656Z,14.60
2018-01-13T18:30:23.673Z,15.53
2018-01-13T18:32:51.240Z,13.47
2018-01-13T18:35:18.799Z,14.30
2018-01-13T18:37:46.372Z,14.27
2018-01-13T18:40:14.703Z,16.03
2018-01-13T18:42:42.247Z,14.83
2018-01-13T18:45:10.584Z,15.03
2018-01-13T18:47:38.131Z,14.53
2018-01-13T18:50:05.673Z,14.13
2018-01-13T18:52:33.235Z,15.07
2018-01-13T18:55:00.777Z,14.97
2018-01-13T18:57:28.348Z,13.50
2018-01-13T18:59:56.662Z,15.27
2018-01-13T19:02:24.228Z,13.73
2018-01-13T19:04:51.762Z,14.37
2018-01-13T19:07:19.319Z,15.87
2018-01-13T19:09:49.177Z,13.70
2018-01-13T19:12:21.665Z,14.70
2018-01-13T19:14:50.819Z,13.90
2018-01-13T19:17:18.435Z,14.40
2018-01-13T19:19:45.981Z,15.60
2018-01-13T19:22:13.523Z,15.37
2018-01-13T19:24:46.304Z,14.87
2018-01-13T19:27:14.164Z,13.53
2018-01-13T19:29:41.741Z,15.00
2018-01-13T19:32:09.349Z,15.97
2018-01-13T19:34:37.011Z,15.03
2018-01-13T19:37:05.337Z,14.77
2018-01-13T19:39:32.894Z,14.80
2018-01-13T19:42:01.200Z,15.30
2018-01-13T19:44:28.766Z,15.27
2018-01-13T19:46:57.387Z,15.17
2018-01-13T19:49:25.271Z,17.23
2018-01-13T19:51:53.567Z,16.47
2018-01-13T19:54:21.923Z,14.07
2018-01-13T19:56:49.464Z,16.27
2018-01-13T19:59:17.797Z,15.60
2018-01-13T20:01:50.709Z,15.10
2018-01-13T20:04:24.453Z,16.53
2018-01-13T20:06:53.317Z,15.80
2018-01-13T20:09:24.740Z,15.70
2018-01-13T20:11:56.715Z,15.50
2018-01-13T20:14:26.194Z,16.07
2018-01-13T20:16:56.439Z,15.43
2018-01-13T20:19:24.472Z,17.10
2018-01-13T20:21:52.100Z,15.57
2018-01-13T20:24:25.172Z,16.60
2018-01-13T20:26:53.688Z,17.97
2018-01-13T20:29:25.392Z,16.47
2018-01-13T20:31:58.621Z,17.10
2018-01-13T20:34:31.659Z,15.50
2018-01-13T20:37:05.083Z,16.37
2018-01-13T20:39:36.686Z,17.00
2018-01-13T20:42:04.647Z,18.07
2018-01-13T20:44:37.238Z,16.63
2018-01-13T20:47:05.625Z,16.20
2018-01-13T20:49:33.931Z,16.20
2018-01-13T20:52:06.779Z,15.77
2018-01-13T20:54:35.517Z,15.03
2018-01-13T20:57:03.075Z,15.40
2018-01-13T20:59:31.412Z,15.13
2018-01-13T21:01:58.979Z,14.97
2018-01-13T21:04:27.284Z,15.13
2018-01-13T21:06:58.062Z,13.30
2018-01-13T21:09:26.118Z,15.37
2018-01-13T21:11:55.123Z,15.70
2018-01-13T21:14:25.944Z,16.13
2018-01-13T21:16:54.109Z,15.13
2018-01-13T21:19:21.724Z,15.67
2018-01-13T21:21:51.032Z,15.30
2018-01-13T21:24:18.578Z,15.40
2018-01-13T21:26:46.145Z,14.03
2018-01-13T21:29:13.688Z,15.70
2018-01-13T21:31:41.247Z,15.13
2018-01-13T21:34:09.564Z,12.60
2018-01-13T21:36:37.894Z,13.67
2018-01-13T21:39:05.442Z,13.60
2018-01-13T21:41:33.779Z,14.00
2018-01-13T21:44:01.379Z,15.37
2018-01-13T21:46:28.927Z,16.20
2018-01-13T21:48:56.518Z,14.67
2018-01-13T21:51:24.071Z,13.83
2018-01-13T21:53:52.407Z,14.60
2018-01-13T21:56:22.098Z,14.13
2018-01-13T21:58:49.664Z,13.37
2018-01-13T22:01:21.091Z,14.43
2018-01-13T22:03:49.503Z,12.00
2018-01-13T22:06:17.038Z,16.40
2018-01-13T22:08:45.921Z,15.17
2018-01-13T22:11:13.470Z,13.37
2018-01-13T22:13:41.794Z,14.30
2018-01-13T22:16:09.340Z,15.10
2018-01-13T22:18:36.913Z,13.73
2018-01-13T22:21:04.455Z,14.93
2018-01-13T22:23:33.080Z,14.30
2018-01-13T22:26:01.550Z,13.77
2018-01-13T22:28:33.361Z,14.30
2018-01-13T22:31:00.957Z,15.00
2018-01-13T22:33:28.643Z,14.97
2018-01-13T22:35:56.203Z,14.53
2018-01-13T22:38:23.860Z,14.37
2018-01-13T22:40:52.682Z,14.70
2018-01-13T22:43:20.231Z,13.00
2018-01-13T22:45:47.822Z,14.17
2018-01-13T22:48:15.359Z,13.90
2018-01-13T22:50:42.910Z,16.23
2018-01-13T22:53:11.205Z,13.03
2018-01-13T22:55:38.759Z,13.20
2018-01-13T22:58:06.306Z,15.17
2018-01-13T23:03:28.620Z,13.47
2018-01-13T23:05:56.727Z,15.50
2018-01-13T23:08:24.260Z,13.83
2018-01-13T23:10:52.615Z,14.07
2018-01-13T23:13:20.205Z,14.60
2018-01-13T23:15:47.748Z,13.80
2018-01-13T23:18:15.306Z,13.80
2018-01-13T23:20:42.847Z,14.17
2018-01-13T23:23:10.411Z,13.37
2018-01-13T23:25:37.945Z,14.10
2018-01-13T23:28:05.512Z,14.30
2018-01-13T23:30:33.054Z,14.53
2018-01-13T23:33:01.371Z,13.93
2018-01-13T23:35:28.914Z,13.80
2018-01-13T23:37:56.487Z,13.97
2018-01-13T23:40:24.029Z,14.27
2018-01-13T23:42:51.609Z,14.00
2018-01-13T23:45:19.153Z,14.20
2018-01-13T23:47:46.763Z,14.63
2018-01-13T23:50:14.312Z,13.10
2018-01-13T23:52:41.908Z,15.00
2018-01-13T23:55:10.239Z,14.07
2018-01-13T23:57:37.791Z,16.17
